createdAt,value
2023-02-02T00:01:20.818Z,7.57
2023-02-02T00:03:50.969Z,7.87
2023-02-02T00:06:23.252Z,8.30
2023-02-02T00:08:51.237Z,8.78
2023-02-02T00:11:19.512Z,9.15
2023-02-02T00:13:47.235Z,8.50
2023-02-02T00:16:31.071Z,7.69
2023-02-02T00:19:01.215Z,8.30
2023-02-02T00:21:28.952Z,9.32
2023-02-02T00:23:56.668Z,9.63
2023-02-02T00:26:24.758Z,8.93
2023-02-02T00:28:52.717Z,8.03
2023-02-02T00:31:20.560Z,7.50
2023-02-02T00:33:49.973Z,8.28
2023-02-02T00:36:19.290Z,9.18
2023-02-02T00:38:48.272Z,9.30
2023-02-02T00:41:16.424Z,8.36
2023-02-02T00:43:44.501Z,7.56
2023-02-02T00:46:18.762Z,7.31
2023-02-02T00:48:47.072Z,8.28
2023-02-02T00:51:14.745Z,9.06
2023-02-02T00:53:42.414Z,8.58
2023-02-02T00:56:10.205Z,7.78
2023-02-02T00:58:37.936Z,7.27
2023-02-02T01:01:05.709Z,7.92
2023-02-02T01:03:33.542Z,8.82
2023-02-02T01:06:01.263Z,8.97
2023-02-02T01:08:29.261Z,8.16
2023-02-02T01:10:59.725Z,7.40
2023-02-02T01:13:27.466Z,7.34
2023-02-02T01:15:57.334Z,8.61
2023-02-02T01:18:27.806Z,9.19
2023-02-02T01:21:02.434Z,8.58
2023-02-02T01:23:30.808Z,7.60
2023-02-02T01:26:00.567Z,7.34
2023-02-02T01:28:28.868Z,8.30
2023-02-02T01:30:57.515Z,8.97
2023-02-02T01:33:25.534Z,8.53
2023-02-02T01:35:55.439Z,7.69
2023-02-02T01:38:24.795Z,7.16
2023-02-02T01:40:55.427Z,7.81
2023-02-02T01:43:52.694Z,8.79
2023-02-02T01:46:34.839Z,8.43
2023-02-02T01:49:13.272Z,7.51
2023-02-02T01:51:46.504Z,7.29
2023-02-02T01:54:19.015Z,8.38
2023-02-02T01:56:59.371Z,8.84
2023-02-02T01:59:28.504Z,8.20
2023-02-02T02:01:56.439Z,7.48
2023-02-02T02:04:25.266Z,7.13
2023-02-02T02:06:53.725Z,8.03
2023-02-02T02:09:21.721Z,8.99
2023-02-02T02:11:49.459Z,8.80
2023-02-02T02:14:36.015Z,7.88
2023-02-02T02:17:37.930Z,7.15
2023-02-02T02:20:53.264Z,7.43
2023-02-02T02:24:02.819Z,8.63
2023-02-02T02:26:39.776Z,8.22
2023-02-02T02:29:36.009Z,7.34
2023-02-02T02:32:23.315Z,6.86
2023-02-02T02:35:21.866Z,7.79
2023-02-02T02:38:12.558Z,8.75
2023-02-02T02:40:46.653Z,8.22
2023-02-02T02:43:33.414Z,7.56
2023-02-02T02:46:02.266Z,6.98
2023-02-02T02:48:30.006Z,7.02
2023-02-02T02:51:38.525Z,8.08
2023-02-02T02:54:06.947Z,8.65
2023-02-02T02:56:46.979Z,7.96
2023-02-02T02:59:36.188Z,7.26
2023-02-02T03:02:29.104Z,7.11
2023-02-02T03:05:28.150Z,8.29
2023-02-02T03:08:24.821Z,8.46
2023-02-02T03:10:52.844Z,7.55
2023-02-02T03:13:20.522Z,7.03
2023-02-02T03:15:48.263Z,6.73
2023-02-02T03:18:17.812Z,7.51
2023-02-02T03:20:46.476Z,8.52
2023-02-02T03:23:14.481Z,8.15
2023-02-02T03:25:42.257Z,7.57
2023-02-02T03:28:10.059Z,7.02
2023-02-02T03:35:35.191Z,8.24
2023-02-02T03:38:03.810Z,7.46
2023-02-02T03:40:31.461Z,6.86
2023-02-02T03:42:59.115Z,6.64
2023-02-02T03:45:28.483Z,7.61
2023-02-02T03:47:56.191Z,8.34
2023-02-02T03:50:25.877Z,7.78
2023-02-02T03:52:54.025Z,7.08
2023-02-02T03:55:22.083Z,6.66
2023-02-02T03:57:50.019Z,6.97
2023-02-02T04:00:18.248Z,7.91
2023-02-02T04:02:45.969Z,8.28
2023-02-02T04:05:13.694Z,7.80
2023-02-02T04:07:41.464Z,7.14
2023-02-02T04:10:10.063Z,6.68
2023-02-02T04:12:37.785Z,7.06
2023-02-02T04:15:06.422Z,8.06
2023-02-02T04:17:35.332Z,8.21
2023-02-02T04:20:04.686Z,7.68
2023-02-02T04:22:33.475Z,7.09
2023-02-02T04:25:01.270Z,6.63
2023-02-02T04:27:32.627Z,6.71
2023-02-02T04:30:00.298Z,7.71
2023-02-02T04:32:29.252Z,8.29
2023-02-02T04:34:56.945Z,7.74
2023-02-02T04:37:24.622Z,7.19
2023-02-02T04:39:53.825Z,6.74
2023-02-02T04:42:21.607Z,6.63
2023-02-02T04:44:49.661Z,7.73
2023-02-02T04:47:17.572Z,8.52
2023-02-02T04:49:45.249Z,7.99
2023-02-02T04:52:13.068Z,7.35
2023-02-02T04:54:40.748Z,6.84
2023-02-02T04:57:08.686Z,6.94
2023-02-02T04:59:36.442Z,8.11
2023-02-02T05:02:04.547Z,9.02
2023-02-02T05:04:32.409Z,8.49
2023-02-02T05:07:00.323Z,7.70
2023-02-02T05:09:28.177Z,7.18
2023-02-02T05:11:55.889Z,6.89
2023-02-02T05:14:23.612Z,7.70
2023-02-02T05:16:51.404Z,8.36
2023-02-02T05:19:19.273Z,7.78
2023-02-02T05:21:51.014Z,7.18
2023-02-02T05:24:19.332Z,6.79
2023-02-02T05:26:47.316Z,7.36
2023-02-02T05:29:15.143Z,8.42
2023-02-02T05:31:42.844Z,8.58
2023-02-02T05:34:11.612Z,7.83
2023-02-02T05:36:39.355Z,7.24
2023-02-02T05:39:07.179Z,6.91
2023-02-02T05:41:34.906Z,7.57
2023-02-02T05:44:03.332Z,8.59
2023-02-02T05:46:31.132Z,9.03
2023-02-02T05:48:59.356Z,8.34
2023-02-02T05:51:32.444Z,7.65
2023-02-02T05:54:01.117Z,7.11
2023-02-02T05:56:28.887Z,7.28
2023-02-02T05:58:56.611Z,8.44
2023-02-02T06:01:24.489Z,9.01
2023-02-02T06:03:52.246Z,8.37
2023-02-02T06:06:20.237Z,7.64
2023-02-02T06:08:48.063Z,7.35
2023-02-02T06:11:17.747Z,8.19
2023-02-02T06:13:46.102Z,8.96
2023-02-02T06:16:14.156Z,8.81
2023-02-02T06:18:41.939Z,8.00
2023-02-02T06:21:10.221Z,7.34
2023-02-02T06:23:38.301Z,7.82
2023-02-02T06:26:08.274Z,8.57
2023-02-02T06:28:36.134Z,8.96
2023-02-02T06:31:05.958Z,9.08
2023-02-02T06:33:33.817Z,8.21
2023-02-02T06:36:06.311Z,7.48
2023-02-02T06:38:34.096Z,7.92
2023-02-02T06:41:02.760Z,8.58
2023-02-02T06:43:31.045Z,8.97
2023-02-02T06:45:58.846Z,8.64
2023-02-02T06:48:27.298Z,7.75
2023-02-02T06:50:59.256Z,7.61
2023-02-02T06:53:27.331Z,8.37
2023-02-02T06:55:56.187Z,9.10
2023-02-02T06:58:23.990Z,8.81
2023-02-02T07:00:52.091Z,7.91
2023-02-02T07:03:21.467Z,7.77
2023-02-02T07:05:49.657Z,8.62
2023-02-02T07:08:17.600Z,9.18
2023-02-02T07:11:14.513Z,8.83
2023-02-02T07:13:33.035Z,7.87
2023-02-02T07:16:00.853Z,7.72
2023-02-02T07:18:28.618Z,8.54
2023-02-02T07:21:00.445Z,9.07
2023-02-02T07:23:29.107Z,8.91
2023-02-02T07:26:01.773Z,8.15
2023-02-02T07:28:29.555Z,7.56
2023-02-02T07:30:59.179Z,7.39
2023-02-02T07:33:27.266Z,8.42
2023-02-02T07:35:55.069Z,9.38
2023-02-02T07:38:22.756Z,9.18
2023-02-02T07:40:50.447Z,8.44
2023-02-02T07:43:19.404Z,7.79
2023-02-02T07:45:47.058Z,7.72
2023-02-02T07:48:14.776Z,8.95
2023-02-02T07:50:42.481Z,9.73
2023-02-02T07:53:10.241Z,9.23
2023-02-02T07:55:38.009Z,8.45
2023-02-02T07:58:07.754Z,7.83
2023-02-02T08:00:35.446Z,7.55
2023-02-02T08:03:03.303Z,8.39
2023-02-02T08:05:32.095Z,9.74
2023-02-02T08:07:59.741Z,9.84
2023-02-02T08:10:28.032Z,9.10
2023-02-02T08:12:55.683Z,8.39
2023-02-02T08:15:23.484Z,7.85
2023-02-02T08:17:52.045Z,7.44
2023-02-02T08:20:19.755Z,7.72
2023-02-02T08:22:47.486Z,9.09
2023-02-02T08:25:15.310Z,9.54
2023-02-02T08:27:42.960Z,8.95
2023-02-02T08:30:11.582Z,8.30
2023-02-02T08:32:40.479Z,7.86
2023-02-02T08:35:08.369Z,7.57
2023-02-02T08:37:36.110Z,7.40
2023-02-02T08:40:04.176Z,7.89
2023-02-02T08:42:31.849Z,9.24
2023-02-02T08:46:00.025Z,10.05
2023-02-02T08:47:47.305Z,9.49
2023-02-02T08:50:16.301Z,8.89
2023-02-02T08:52:44.535Z,8.41
2023-02-02T08:55:12.190Z,8.08
2023-02-02T08:57:39.961Z,7.82
2023-02-02T14:02:41.149Z,6.09
2023-02-02T14:05:22.431Z,7.43
2023-02-02T14:07:55.882Z,8.82
2023-02-02T14:10:27.056Z,9.88
2023-02-02T14:12:55.869Z,10.99
2023-02-02T14:15:43.930Z,12.02
2023-02-02T14:18:11.698Z,12.09
2023-02-02T14:20:48.154Z,12.19
2023-02-02T14:23:53.604Z,12.26
2023-02-02T14:26:43.594Z,12.44
2023-02-02T14:29:31.319Z,12.24
2023-02-02T14:32:24.217Z,11.64
2023-02-02T14:34:56.332Z,11.08
2023-02-02T14:37:23.995Z,10.47
2023-02-02T14:40:06.993Z,9.94
2023-02-02T14:43:12.951Z,9.49
2023-02-02T14:45:42.460Z,9.00
2023-02-02T14:48:16.148Z,8.60
2023-02-02T14:50:56.574Z,8.30
2023-02-02T14:53:36.529Z,8.04
2023-02-02T14:56:04.343Z,7.73
2023-02-02T14:58:35.123Z,7.49
2023-02-02T15:01:13.476Z,7.29
2023-02-02T15:03:47.254Z,7.07
2023-02-02T15:06:33.912Z,6.88
2023-02-02T15:09:19.991Z,6.80
2023-02-02T15:12:02.975Z,8.01
2023-02-02T15:14:36.215Z,9.28
2023-02-02T15:17:22.554Z,9.08
2023-02-02T15:19:56.238Z,8.35
2023-02-02T15:22:37.724Z,7.76
2023-02-02T15:25:14.105Z,7.28
2023-02-02T15:27:56.186Z,6.92
2023-02-02T15:30:27.509Z,6.65
2023-02-02T15:32:55.966Z,6.41
2023-02-02T15:35:28.493Z,6.20
2023-02-02T15:38:01.623Z,6.03
2023-02-02T15:40:30.593Z,5.86
2023-02-02T15:43:06.294Z,5.72
2023-02-02T15:45:43.690Z,5.61
2023-02-02T15:48:18.746Z,5.49
2023-02-02T15:50:48.217Z,5.37
2023-02-02T15:53:22.273Z,5.27
2023-02-02T15:55:50.268Z,5.19
2023-02-02T15:58:33.082Z,5.10
2023-02-02T16:01:06.812Z,4.99
2023-02-02T16:03:46.945Z,4.92
2023-02-02T16:06:14.712Z,4.85
2023-02-02T16:08:42.557Z,4.77
2023-02-02T16:11:18.686Z,4.71
2023-02-02T16:14:07.375Z,4.61
2023-02-02T16:16:37.735Z,4.56
2023-02-02T16:19:08.925Z,4.53
2023-02-02T16:21:41.221Z,4.48
2023-02-02T16:24:12.050Z,4.49
2023-02-02T16:26:39.887Z,4.51
2023-02-02T16:29:17.123Z,4.49
2023-02-02T16:31:46.958Z,4.44
2023-02-02T16:34:44.957Z,4.40
2023-02-02T16:37:14.149Z,4.35
2023-02-02T16:39:42.152Z,4.28
2023-02-02T16:42:35.076Z,4.21
2023-02-02T16:45:02.819Z,4.16
2023-02-02T16:47:33.107Z,4.13
2023-02-02T16:50:09.782Z,4.11
2023-02-02T16:52:57.897Z,4.09
2023-02-02T16:55:36.424Z,4.07
2023-02-02T16:58:21.302Z,4.04
2023-02-02T17:01:13.670Z,4.04
2023-02-02T17:03:50.114Z,4.01
2023-02-02T17:06:19.142Z,4.01
2023-02-02T17:08:47.792Z,4.01
2023-02-02T17:11:26.577Z,3.99
2023-02-02T17:13:54.829Z,3.99
2023-02-02T17:16:24.236Z,4.01
2023-02-02T17:18:52.047Z,4.00
2023-02-02T17:21:21.950Z,4.00
2023-02-02T17:23:51.759Z,4.01
2023-02-02T17:26:19.839Z,4.02
2023-02-02T17:28:47.788Z,4.04
2023-02-02T17:31:16.540Z,4.06
2023-02-02T17:33:47.156Z,4.08
2023-02-02T17:36:15.105Z,4.10
2023-02-02T17:38:43.163Z,4.14
2023-02-02T17:41:12.533Z,4.18
2023-02-02T17:43:42.694Z,4.20
2023-02-02T17:46:13.277Z,4.20
2023-02-02T17:48:41.095Z,4.18
2023-02-02T17:51:17.977Z,4.16
2023-02-02T17:53:46.394Z,4.16
2023-02-02T17:56:14.149Z,4.16
2023-02-02T17:58:42.173Z,4.16
2023-02-02T18:01:11.940Z,4.16
2023-02-02T18:03:41.065Z,4.14
2023-02-02T18:06:10.097Z,4.14
2023-02-02T18:08:37.876Z,4.16
2023-02-02T18:11:05.874Z,4.14
2023-02-02T18:13:36.290Z,4.11
2023-02-02T18:16:06.030Z,4.13
2023-02-02T18:18:33.963Z,4.11
2023-02-02T18:21:02.471Z,4.12
2023-02-02T18:23:30.229Z,4.12
2023-02-02T18:26:09.618Z,4.12
2023-02-02T18:28:38.520Z,4.13
2023-02-02T18:31:14.021Z,4.11
2023-02-02T18:33:42.550Z,4.10
2023-02-02T18:36:16.069Z,4.07
2023-02-02T18:38:47.175Z,4.05
2023-02-02T18:41:16.036Z,4.05
2023-02-02T18:43:45.509Z,4.07
2023-02-02T18:46:15.122Z,4.06
2023-02-02T18:48:43.200Z,4.05
2023-02-02T18:51:16.142Z,4.04
2023-02-02T18:53:45.178Z,4.03
2023-02-02T18:56:14.763Z,4.01
2023-02-02T18:58:42.522Z,4.01
2023-02-02T19:01:16.236Z,4.01
2023-02-02T19:03:48.409Z,4.00
2023-02-02T19:06:35.679Z,4.00
2023-02-02T19:09:04.312Z,4.02
2023-02-02T19:11:38.886Z,4.06
2023-02-02T19:14:13.067Z,4.10
2023-02-02T19:16:41.147Z,4.14
2023-02-02T19:19:20.397Z,4.19
2023-02-02T19:21:48.262Z,4.24
2023-02-02T19:24:15.957Z,4.27
2023-02-02T19:26:48.672Z,4.29
2023-02-02T19:29:23.347Z,4.31
2023-02-02T19:32:02.935Z,4.32
2023-02-02T19:34:33.031Z,4.30
2023-02-02T19:37:22.813Z,4.28
2023-02-02T19:40:13.500Z,4.24
2023-02-02T19:42:50.199Z,4.22
2023-02-02T19:45:30.086Z,4.21
2023-02-02T19:47:59.784Z,4.24
2023-02-02T19:50:32.743Z,4.21
2023-02-02T19:53:02.321Z,4.16
2023-02-02T19:55:35.286Z,4.11
2023-02-02T19:58:21.465Z,4.06
2023-02-02T20:00:50.647Z,4.02
2023-02-02T20:03:36.300Z,3.96
2023-02-02T20:06:04.663Z,3.90
2023-02-02T20:08:39.903Z,3.87
2023-02-02T20:11:23.633Z,3.83
2023-02-02T20:13:51.952Z,3.76
2023-02-02T20:16:22.013Z,3.73
2023-02-02T20:18:54.559Z,3.67
2023-02-02T20:21:36.927Z,3.60
2023-02-02T20:24:14.940Z,3.54
2023-02-02T20:26:42.914Z,3.50
2023-02-02T20:29:16.547Z,3.45
2023-02-02T20:31:45.705Z,3.38
2023-02-02T20:34:24.263Z,3.34
2023-02-02T20:36:55.041Z,3.32
2023-02-02T20:39:28.088Z,3.30
2023-02-02T20:41:57.240Z,3.26
2023-02-02T20:44:26.892Z,3.24
2023-02-02T20:46:55.987Z,3.23
2023-02-02T20:49:25.654Z,3.23
2023-02-02T20:51:58.082Z,3.24
2023-02-02T20:54:26.376Z,3.25
2023-02-02T20:56:54.471Z,3.27
2023-02-02T20:59:22.379Z,3.27
2023-02-02T21:01:50.535Z,3.29
2023-02-02T21:04:19.402Z,4.17
2023-02-02T21:06:48.796Z,5.89
2023-02-02T21:09:16.922Z,6.95
2023-02-02T21:11:44.617Z,6.58
2023-02-02T21:14:12.406Z,5.87
2023-02-02T21:16:40.127Z,5.33
2023-02-02T21:19:07.944Z,4.95
2023-02-02T21:21:36.040Z,4.69
2023-02-02T21:24:04.312Z,4.46
2023-02-02T21:26:31.992Z,4.23
2023-02-02T21:28:59.702Z,3.97
2023-02-02T21:31:27.562Z,3.76
2023-02-02T21:33:55.512Z,3.59
2023-02-02T21:36:29.764Z,3.49
2023-02-02T21:39:12.304Z,3.42
2023-02-02T21:41:40.023Z,3.35
2023-02-02T21:44:22.344Z,3.30
2023-02-02T21:46:51.631Z,3.24
2023-02-02T21:49:24.817Z,3.19
2023-02-02T21:51:56.072Z,3.15
2023-02-02T21:54:24.870Z,3.13
2023-02-02T21:56:53.116Z,3.09
2023-02-02T21:59:23.241Z,3.31
2023-02-02T22:01:52.440Z,4.92
2023-02-02T22:04:31.345Z,6.66
2023-02-02T22:07:00.555Z,7.47
2023-02-02T22:09:37.516Z,6.79
2023-02-02T22:12:22.561Z,6.00
2023-02-02T22:14:52.543Z,5.45
2023-02-02T22:17:27.764Z,5.11
2023-02-02T22:20:00.906Z,4.81
2023-02-02T22:22:35.940Z,4.57
2023-02-02T22:25:17.778Z,4.37
2023-02-02T22:27:52.576Z,4.19
2023-02-02T22:30:26.090Z,4.05
2023-02-02T22:32:54.893Z,3.90
2023-02-02T22:35:22.728Z,3.77
2023-02-02T22:37:51.417Z,3.66
2023-02-02T22:40:22.441Z,3.55
2023-02-02T22:42:54.803Z,3.46
2023-02-02T22:45:22.500Z,3.37
2023-02-02T22:47:50.581Z,3.29
2023-02-02T22:50:20.641Z,3.22
2023-02-02T22:52:48.498Z,3.15
2023-02-02T22:55:17.314Z,3.08
2023-02-02T22:57:45.237Z,3.01
2023-02-02T23:00:18.312Z,2.95
2023-02-02T23:02:46.268Z,2.88
2023-02-02T23:05:15.428Z,2.84
2023-02-02T23:07:46.598Z,2.80
2023-02-02T23:10:17.101Z,2.75
2023-02-02T23:12:45.503Z,2.72
2023-02-02T23:15:13.816Z,2.68
2023-02-02T23:17:41.642Z,2.66
2023-02-02T23:20:12.463Z,2.63
2023-02-02T23:22:40.156Z,2.61
2023-02-02T23:25:08.562Z,2.58
2023-02-02T23:27:36.507Z,2.56
2023-02-02T23:30:05.870Z,2.76
2023-02-02T23:32:34.305Z,4.18
2023-02-02T23:35:02.137Z,5.82
2023-02-02T23:37:29.808Z,6.79
2023-02-02T23:39:57.526Z,6.29
2023-02-02T23:42:25.800Z,5.59
2023-02-02T23:44:53.511Z,5.07
2023-02-02T23:47:21.295Z,4.71
2023-02-02T23:49:48.999Z,4.41
2023-02-02T23:52:17.113Z,4.16
2023-02-02T23:54:44.841Z,3.98
2023-02-02T23:57:12.532Z,3.81
2023-02-02T23:59:40.343Z,3.67
